createdAt,value
2022-12-04T00:04:16.666Z,99603.94
2022-12-04T00:06:43.833Z,99610.94
2022-12-04T00:09:12.791Z,99613.44
2022-12-04T00:11:39.727Z,99614.25
2022-12-04T00:14:07.574Z,99621.28
2022-12-04T00:16:35.704Z,99614.59
2022-12-04T00:19:03.311Z,99609.59
2022-12-04T00:21:30.562Z,99601.78
2022-12-04T00:23:57.494Z,99603.59
2022-12-04T00:26:28.734Z,99590.44
2022-12-04T00:28:55.974Z,99587.94
2022-12-04T00:31:26.566Z,99583.97
2022-12-04T00:33:54.389Z,99588.97
2022-12-04T00:36:25.201Z,99582.94
2022-12-04T00:38:52.893Z,99572.63
2022-12-04T00:41:23.065Z,99573.94
2022-12-04T00:43:52.453Z,99573.28
2022-12-04T00:46:20.196Z,99583.63
2022-12-04T00:48:47.567Z,99581.94
2022-12-04T00:51:17.544Z,99574.78
2022-12-04T00:53:45.662Z,99572.81
2022-12-04T00:56:15.405Z,99569.28
2022-12-04T00:58:43.902Z,99573.78
2022-12-04T01:01:15.693Z,99578.78
2022-12-04T01:03:43.259Z,99579.78
2022-12-04T01:06:20.142Z,99577.81
2022-12-04T01:08:48.515Z,99572.78
2022-12-04T01:11:17.028Z,99576.47
2022-12-04T01:13:44.192Z,99576.47
2022-12-04T01:16:19.781Z,99575.28
2022-12-04T01:18:47.506Z,99569.47
2022-12-04T01:21:14.788Z,99571.66
2022-12-04T01:23:41.867Z,99573.81
2022-12-04T01:26:09.102Z,99556.47
2022-12-04T01:28:36.799Z,99563.66
2022-12-04T01:31:07.609Z,99565.81
2022-12-04T01:33:38.008Z,99565.66
2022-12-04T01:36:09.564Z,99564.31
2022-12-04T01:38:37.223Z,99563.81
2022-12-04T01:41:05.470Z,99561.13
2022-12-04T01:43:36.050Z,99568.97
2022-12-04T01:46:04.517Z,99567.31
2022-12-04T01:48:37.426Z,99568.63
2022-12-04T01:51:10.892Z,99563.97
2022-12-04T01:53:44.162Z,99562.16
2022-12-04T01:56:11.359Z,99560.97
2022-12-04T01:58:46.120Z,99568.81
2022-12-04T02:01:13.203Z,99561.16
2022-12-04T02:03:41.678Z,99551.50
2022-12-04T02:06:08.504Z,99559.97
2022-12-04T02:08:39.447Z,99565.81
2022-12-04T02:11:21.570Z,99567.97
2022-12-04T02:14:02.362Z,99557.97
2022-12-04T02:16:41.476Z,99560.66
2022-12-04T02:19:42.740Z,99558.66
2022-12-04T02:22:29.652Z,99557.81
2022-12-04T02:25:13.619Z,99566.81
2022-12-04T02:28:09.078Z,99564.31
2022-12-04T02:30:41.582Z,99554.47
2022-12-04T02:33:19.176Z,99559.00
2022-12-04T02:35:55.184Z,99561.50
2022-12-04T02:38:32.463Z,99552.66
2022-12-04T02:41:11.104Z,99557.97
2022-12-04T02:43:45.525Z,99546.81
2022-12-04T02:46:20.417Z,99543.97
2022-12-04T02:48:52.716Z,99536.28
2022-12-04T02:51:25.983Z,99530.63
2022-12-04T02:53:59.492Z,99541.97
2022-12-04T02:56:32.402Z,99552.81
2022-12-04T02:59:07.191Z,99548.31
2022-12-04T03:01:41.503Z,99534.97
2022-12-04T03:04:16.000Z,99534.47
2022-12-04T03:06:49.314Z,99520.97
2022-12-04T03:09:22.166Z,99515.97
2022-12-04T03:11:58.070Z,99518.28
2022-12-04T03:14:33.790Z,99518.28
2022-12-04T03:17:08.661Z,99510.63
2022-12-04T03:19:43.704Z,99513.97
2022-12-04T03:22:17.547Z,99514.94
2022-12-04T03:24:51.785Z,99513.63
2022-12-04T03:27:31.166Z,99524.81
2022-12-04T03:30:07.159Z,99523.78
2022-12-04T03:32:43.035Z,99525.28
2022-12-04T03:35:19.105Z,99516.31
2022-12-04T03:37:57.672Z,99505.63
2022-12-04T03:40:35.782Z,99507.97
2022-12-04T03:43:11.961Z,99507.28
2022-12-04T03:45:48.504Z,99506.63
2022-12-04T03:48:24.172Z,99498.78
2022-12-04T03:51:00.391Z,99504.63
2022-12-04T03:53:36.213Z,99504.97
2022-12-04T03:56:13.379Z,99513.13
2022-12-04T03:58:51.020Z,99496.94
2022-12-04T04:01:26.930Z,99497.25
2022-12-04T04:03:59.141Z,99484.25
2022-12-04T04:06:32.502Z,99491.78
2022-12-04T04:09:08.739Z,99487.44
2022-12-04T04:11:43.948Z,99497.41
2022-12-04T04:14:22.390Z,99498.41
2022-12-04T04:16:59.912Z,99508.09
2022-12-04T04:19:32.675Z,99508.59
2022-12-04T04:22:04.563Z,99514.94
2022-12-04T04:24:40.506Z,99506.63
2022-12-04T04:27:07.692Z,99507.63
2022-12-04T04:29:35.415Z,99511.94
2022-12-04T04:32:14.159Z,99515.28
2022-12-04T04:34:56.309Z,99523.47
2022-12-04T04:37:33.051Z,99516.59
2022-12-04T04:40:12.015Z,99526.13
2022-12-04T04:42:49.448Z,99526.94
2022-12-04T04:45:23.161Z,99530.44
2022-12-04T04:48:00.513Z,99521.78
2022-12-04T04:50:29.283Z,99525.28
2022-12-04T04:53:05.250Z,99523.28
2022-12-04T04:55:35.906Z,99525.28
2022-12-04T04:58:09.249Z,99525.97
2022-12-04T05:00:38.398Z,99512.63
2022-12-04T05:03:07.191Z,99519.09
2022-12-04T05:05:34.133Z,99519.94
2022-12-04T05:08:01.273Z,99519.28
2022-12-04T05:10:28.419Z,99522.28
2022-12-04T05:12:55.642Z,99522.94
2022-12-04T05:15:22.538Z,99520.63
2022-12-04T05:17:49.504Z,99521.44
2022-12-04T05:20:18.247Z,99533.47
2022-12-04T05:22:45.291Z,99529.78
2022-12-04T05:25:12.601Z,99528.28
2022-12-04T05:27:39.565Z,99522.78
2022-12-04T05:30:08.400Z,99521.44
2022-12-04T05:32:35.299Z,99527.44
2022-12-04T05:35:07.697Z,99521.59
2022-12-04T05:37:40.724Z,99523.25
2022-12-04T05:40:09.093Z,99522.63
2022-12-04T05:42:36.102Z,99519.59
2022-12-04T05:45:03.434Z,99527.78
2022-12-04T05:47:30.677Z,99529.78
2022-12-04T05:49:57.764Z,99530.63
2022-12-04T05:52:24.783Z,99522.63
2022-12-04T05:54:53.009Z,99519.59
2022-12-04T05:57:20.173Z,99520.59
2022-12-04T05:59:47.662Z,99515.25
2022-12-04T06:02:14.611Z,99516.25
2022-12-04T06:04:41.572Z,99516.44
2022-12-04T06:07:09.996Z,99516.09
2022-12-04T06:09:38.290Z,99516.59
2022-12-04T06:12:06.952Z,99510.94
2022-12-04T06:14:39.258Z,99514.94
2022-12-04T06:17:07.204Z,99525.28
2022-12-04T06:19:34.067Z,99531.78
2022-12-04T06:22:01.060Z,99532.28
2022-12-04T06:24:27.997Z,99529.78
2022-12-04T06:27:26.933Z,99529.28
2022-12-04T06:29:46.160Z,99523.59
2022-12-04T06:32:17.784Z,99517.44
2022-12-04T06:34:46.677Z,99519.44
2022-12-04T06:37:16.500Z,99520.13
2022-12-04T06:39:43.695Z,99526.25
2022-12-04T06:42:11.260Z,99519.28
2022-12-04T06:44:38.348Z,99521.09
2022-12-04T06:47:06.516Z,99512.44
2022-12-04T06:49:33.740Z,99509.94
2022-12-04T06:52:00.574Z,99515.75
2022-12-04T06:54:27.876Z,99516.44
2022-12-04T06:56:54.821Z,99514.44
2022-12-04T06:59:22.281Z,99521.13
2022-12-04T07:01:49.244Z,99520.47
2022-12-04T07:04:17.530Z,99516.50
2022-12-04T07:06:44.522Z,99527.19
2022-12-04T07:09:15.472Z,99529.72
2022-12-04T07:11:44.431Z,99535.94
2022-12-04T07:14:13.315Z,99527.44
2022-12-04T07:16:42.653Z,99538.44
2022-12-04T07:19:11.478Z,99533.13
2022-12-04T07:21:41.339Z,99519.59
2022-12-04T07:24:11.641Z,99519.94
2022-12-04T07:26:38.910Z,99521.59
2022-12-04T07:29:05.756Z,99520.28
2022-12-04T07:31:32.984Z,99521.09
2022-12-04T07:33:59.900Z,99519.44
2022-12-04T07:36:29.455Z,99516.94
2022-12-04T07:43:18.336Z,99536.13
2022-12-04T07:45:45.855Z,99531.13
2022-12-04T07:51:21.382Z,99525.13
2022-12-04T07:53:50.270Z,99529.78
2022-12-04T07:56:17.979Z,99522.09
2022-12-04T07:58:49.330Z,99524.44
2022-12-04T08:01:20.380Z,99532.09
2022-12-04T08:03:50.318Z,99532.78
2022-12-04T08:06:20.252Z,99539.94
2022-12-04T08:08:48.273Z,99534.94
2022-12-04T08:11:19.103Z,99534.78
2022-12-04T08:13:46.272Z,99531.72
2022-12-04T08:16:15.741Z,99537.16
2022-12-04T08:18:42.867Z,99539.13
2022-12-04T08:21:12.167Z,99531.84
2022-12-04T08:23:42.278Z,99529.47
2022-12-04T08:26:11.274Z,99519.00
2022-12-04T08:28:39.565Z,99520.78
2022-12-04T08:31:10.297Z,99521.53
2022-12-04T08:33:38.973Z,99522.44
2022-12-04T08:36:07.307Z,99534.00
2022-12-04T08:38:34.547Z,99534.28
2022-12-04T08:41:01.778Z,99530.06
2022-12-04T08:43:29.419Z,99528.78
2022-12-04T08:45:57.348Z,99522.53
2022-12-04T08:48:24.446Z,99531.38
2022-12-04T08:50:53.754Z,99530.25
2022-12-04T08:53:20.649Z,99527.88
2022-12-04T08:55:47.927Z,99535.75
2022-12-04T08:58:14.773Z,99531.03
2022-12-04T09:00:41.752Z,99539.69
2022-12-04T09:03:12.955Z,99540.78
2022-12-04T09:05:40.143Z,99543.03
2022-12-04T09:08:08.658Z,99533.69
2022-12-04T09:10:36.199Z,99543.50
2022-12-04T09:13:03.240Z,99553.19
2022-12-04T09:15:30.957Z,99562.44
2022-12-04T09:17:58.449Z,99573.28
2022-12-04T09:20:25.786Z,99569.59
2022-12-04T09:23:04.054Z,99566.59
2022-12-04T09:25:36.421Z,99578.59
2022-12-04T09:28:03.823Z,99579.13
2022-12-04T09:30:30.750Z,99578.78
2022-12-04T09:32:57.678Z,99567.94
2022-12-04T09:35:24.561Z,99568.56
2022-12-04T09:37:51.439Z,99558.06
2022-12-04T09:40:32.077Z,99558.25
2022-12-04T09:43:24.429Z,99555.75
2022-12-04T09:45:58.642Z,99553.75
2022-12-04T09:48:35.863Z,99545.88
2022-12-04T09:51:06.882Z,99543.88
2022-12-04T09:53:45.416Z,99531.53
2022-12-04T09:56:17.743Z,99516.34
2022-12-04T09:58:53.585Z,99513.19
2022-12-04T10:01:24.869Z,99512.00
2022-12-04T10:03:55.172Z,99512.69
2022-12-04T10:06:28.893Z,99507.97
2022-12-04T10:09:03.834Z,99501.13
2022-12-04T10:11:48.665Z,99479.78
2022-12-04T10:14:48.582Z,99493.75
2022-12-04T10:17:39.783Z,99487.03
2022-12-04T10:20:34.876Z,99484.78
2022-12-04T10:23:17.924Z,99481.44
2022-12-04T10:25:44.811Z,99474.91
2022-12-04T10:28:24.098Z,99461.09
2022-12-04T10:30:57.255Z,99459.34
2022-12-04T10:33:37.554Z,99453.25
2022-12-04T10:36:07.044Z,99454.50
2022-12-04T10:38:45.498Z,99455.47
2022-12-04T10:41:24.723Z,99452.94
2022-12-04T10:43:52.488Z,99450.03
2022-12-04T10:46:26.855Z,99460.66
2022-12-04T10:48:59.391Z,99445.75
2022-12-04T10:51:26.762Z,99451.19
2022-12-04T10:53:56.868Z,99453.50
2022-12-04T10:56:25.778Z,99463.03
2022-12-04T10:58:59.623Z,99462.13
2022-12-04T11:01:31.256Z,99463.25
2022-12-04T11:04:05.786Z,99462.69
2022-12-04T11:06:35.328Z,99472.31
2022-12-04T11:09:04.355Z,99468.09
2022-12-04T11:11:34.619Z,99472.34
2022-12-04T11:14:13.736Z,99472.66
2022-12-04T11:16:45.243Z,99474.59
2022-12-04T11:19:22.684Z,99468.34
2022-12-04T11:21:50.469Z,99463.97
2022-12-04T11:24:23.052Z,99465.09
2022-12-04T11:26:52.153Z,99467.41
2022-12-04T11:29:26.227Z,99461.03
2022-12-04T11:31:56.466Z,99458.84
2022-12-04T11:34:34.935Z,99448.81
2022-12-04T11:37:03.238Z,99450.94
2022-12-04T11:39:36.575Z,99444.38
2022-12-04T11:42:15.370Z,99442.38
2022-12-04T11:44:51.676Z,99451.19
2022-12-04T11:47:23.049Z,99461.91
2022-12-04T11:50:06.986Z,99467.25
2022-12-04T11:52:55.341Z,99466.06
2022-12-04T11:55:30.057Z,99455.25
2022-12-04T11:58:27.245Z,99452.03
2022-12-04T12:01:20.376Z,99441.81
2022-12-04T12:04:19.436Z,99436.06
2022-12-04T12:07:08.778Z,99438.56
2022-12-04T12:09:51.609Z,99456.13
2022-12-04T12:12:35.937Z,99450.59
2022-12-04T12:15:17.071Z,99456.75
2022-12-04T12:17:53.722Z,99450.78
2022-12-04T12:20:32.772Z,99446.06
2022-12-04T12:23:23.262Z,99435.34
2022-12-04T12:26:00.195Z,99428.53
2022-12-04T12:28:48.092Z,99427.31
2022-12-04T12:31:53.782Z,99429.63
2022-12-04T12:34:37.447Z,99419.59
2022-12-04T12:37:20.977Z,99422.25
2022-12-04T12:39:57.454Z,99427.63
2022-12-04T12:42:32.572Z,99413.94
2022-12-04T12:45:12.240Z,99414.41
2022-12-04T12:47:45.426Z,99413.22
2022-12-04T12:50:21.001Z,99411.19
2022-12-04T12:52:59.622Z,99418.00
2022-12-04T12:55:36.416Z,99414.69
2022-12-04T12:58:12.806Z,99400.75
2022-12-04T13:00:50.447Z,99397.63
2022-12-04T13:03:32.661Z,99400.50
2022-12-04T13:06:06.296Z,99402.69
2022-12-04T13:08:45.020Z,99403.16
2022-12-04T13:11:21.625Z,99389.59
2022-12-04T13:13:54.016Z,99383.53
2022-12-04T13:16:26.815Z,99382.03
2022-12-04T13:19:09.938Z,99377.50
2022-12-04T13:21:46.630Z,99384.50
2022-12-04T13:25:06.246Z,99377.22
2022-12-04T13:27:50.051Z,99382.56
2022-12-04T13:30:23.121Z,99381.75
2022-12-04T13:33:49.913Z,99385.06
2022-12-04T13:36:38.245Z,99386.38
2022-12-04T13:39:48.553Z,99399.22
2022-12-04T13:42:25.699Z,99407.84
2022-12-04T13:44:56.492Z,99403.06
2022-12-04T13:47:30.614Z,99410.09
2022-12-04T13:50:28.860Z,99411.28
2022-12-04T13:52:56.773Z,99418.56
2022-12-04T13:55:30.215Z,99422.91
2022-12-04T13:58:00.978Z,99423.53
2022-12-04T14:00:32.613Z,99433.44
2022-12-04T14:03:04.761Z,99421.72
2022-12-04T14:05:41.366Z,99423.38
2022-12-04T14:08:25.676Z,99414.25
2022-12-04T14:11:07.910Z,99422.91
2022-12-04T14:13:47.420Z,99409.06
2022-12-04T14:16:22.884Z,99412.22
2022-12-04T14:18:54.054Z,99407.84
2022-12-04T14:21:21.630Z,99406.56
2022-12-04T14:23:49.611Z,99403.25
2022-12-04T14:26:37.248Z,99398.63
2022-12-04T14:29:38.217Z,99389.59
2022-12-04T14:32:13.560Z,99379.28
2022-12-04T14:34:41.202Z,99371.06
2022-12-04T14:37:25.093Z,99380.09
2022-12-04T14:39:53.748Z,99376.50
2022-12-04T14:42:26.945Z,99379.34
2022-12-04T14:44:57.296Z,99382.75
2022-12-04T14:47:42.455Z,99373.06
2022-12-04T14:50:29.497Z,99385.16
2022-12-04T14:53:12.511Z,99385.88
2022-12-04T14:55:55.576Z,99394.72
2022-12-04T14:58:25.207Z,99396.03
2022-12-04T15:00:54.651Z,99403.88
2022-12-04T15:03:22.932Z,99399.88
2022-12-04T15:05:50.848Z,99408.22
2022-12-04T15:08:18.216Z,99413.19
2022-12-04T15:10:50.504Z,99418.19
2022-12-04T15:13:31.970Z,99411.44
2022-12-04T15:16:10.459Z,99404.44
2022-12-04T15:18:39.728Z,99412.47
2022-12-04T15:21:11.041Z,99415.63
2022-12-04T15:23:41.191Z,99423.28
2022-12-04T15:26:16.109Z,99421.41
2022-12-04T15:28:50.493Z,99414.22
2022-12-04T15:31:23.991Z,99414.22
2022-12-04T15:33:56.489Z,99423.09
2022-12-04T15:36:44.536Z,99419.56
2022-12-04T15:39:22.723Z,99425.78
2022-12-04T15:41:49.713Z,99435.44
2022-12-04T15:44:31.204Z,99434.16
2022-12-04T15:47:02.370Z,99438.00
2022-12-04T15:49:31.878Z,99439.56
2022-12-04T15:52:13.570Z,99439.13
2022-12-04T15:54:45.992Z,99443.97
2022-12-04T15:57:26.748Z,99437.97
2022-12-04T15:59:57.051Z,99429.53
2022-12-04T16:02:29.550Z,99427.63
2022-12-04T16:04:56.983Z,99432.56
2022-12-04T16:07:27.302Z,99419.59
2022-12-04T16:10:02.855Z,99424.41
2022-12-04T16:12:32.517Z,99424.03
2022-12-04T16:15:01.663Z,99428.19
2022-12-04T16:17:31.921Z,99420.66
2022-12-04T16:20:00.802Z,99418.97
2022-12-04T16:22:27.727Z,99411.59
2022-12-04T16:24:55.020Z,99408.09
2022-12-04T16:27:24.605Z,99404.25
2022-12-04T16:29:52.878Z,99399.88
2022-12-04T16:32:28.711Z,99406.06
2022-12-04T16:34:55.826Z,99402.28
2022-12-04T16:37:24.862Z,99394.44
2022-12-04T16:39:51.615Z,99383.34
2022-12-04T16:42:22.658Z,99395.72
2022-12-04T16:44:50.289Z,99399.56
2022-12-04T16:47:18.054Z,99393.78
2022-12-04T16:49:49.863Z,99400.19
2022-12-04T16:52:17.779Z,99399.25
2022-12-04T16:54:45.046Z,99393.25
2022-12-04T16:57:12.062Z,99388.44
2022-12-04T16:59:38.809Z,99366.53
2022-12-04T17:02:17.487Z,99371.44
2022-12-04T17:04:45.787Z,99389.06
2022-12-04T17:07:12.533Z,99392.88
2022-12-04T17:09:39.494Z,99398.66
2022-12-04T17:12:06.463Z,99393.13
2022-12-04T17:14:33.290Z,99389.00
2022-12-04T17:17:00.548Z,99384.00
2022-12-04T17:19:28.131Z,99391.66
2022-12-04T17:21:56.229Z,99390.28
2022-12-04T17:24:23.300Z,99392.59
2022-12-04T17:26:50.115Z,99389.19
2022-12-04T17:29:16.905Z,99406.06
2022-12-04T17:31:43.662Z,99409.59
2022-12-04T17:34:10.588Z,99406.44
2022-12-04T17:36:37.366Z,99408.09
2022-12-04T17:39:05.548Z,99399.88
2022-12-04T17:41:32.329Z,99400.06
2022-12-04T17:44:00.132Z,99404.47
2022-12-04T17:46:27.632Z,99399.94
2022-12-04T17:48:57.173Z,99386.50
2022-12-04T17:51:25.203Z,99385.41
2022-12-04T17:53:52.438Z,99401.56
2022-12-04T17:56:23.312Z,99406.97
2022-12-04T17:58:51.129Z,99406.78
2022-12-04T18:01:21.727Z,99411.91
2022-12-04T18:03:51.653Z,99409.94
2022-12-04T18:06:22.420Z,99410.03
2022-12-04T18:08:50.516Z,99408.56
2022-12-04T18:11:18.715Z,99408.50
2022-12-04T18:13:47.825Z,99413.09
2022-12-04T18:16:14.910Z,99411.03
2022-12-04T18:18:42.218Z,99423.00
2022-12-04T18:21:11.631Z,99416.91
2022-12-04T18:23:40.636Z,99422.50
2022-12-04T18:26:07.684Z,99431.78
2022-12-04T18:28:34.762Z,99418.06
2022-12-04T18:31:04.541Z,99421.97
2022-12-04T18:33:32.436Z,99414.22
2022-12-04T18:35:59.942Z,99416.81
2022-12-04T18:38:29.805Z,99412.38
2022-12-04T18:41:01.826Z,99414.53
2022-12-04T18:43:29.214Z,99421.91
2022-12-04T18:46:07.673Z,99423.88
2022-12-04T18:48:36.374Z,99418.78
2022-12-04T18:51:15.367Z,99422.59
2022-12-04T18:53:42.770Z,99424.06
2022-12-04T18:56:09.903Z,99426.19
2022-12-04T18:58:36.739Z,99431.84
2022-12-04T19:01:06.553Z,99433.50
2022-12-04T19:03:34.849Z,99432.47
2022-12-04T19:06:02.963Z,99429.44
2022-12-04T19:08:33.767Z,99425.56
2022-12-04T19:11:06.829Z,99435.25
2022-12-04T19:13:34.794Z,99437.75
2022-12-04T19:16:02.701Z,99444.75
2022-12-04T19:18:31.658Z,99449.28
2022-12-04T19:20:58.790Z,99454.81
2022-12-04T19:23:25.659Z,99455.81
2022-12-04T19:25:57.044Z,99461.19
2022-12-04T19:28:25.620Z,99465.91
2022-12-04T19:30:52.465Z,99477.59
2022-12-04T19:33:19.474Z,99474.56
2022-12-04T19:35:59.189Z,99479.53
2022-12-04T19:38:26.674Z,99469.88
2022-12-04T19:41:03.854Z,99482.69
2022-12-04T19:43:30.723Z,99477.88
2022-12-04T19:45:57.814Z,99482.94
2022-12-04T19:48:24.950Z,99493.00
2022-12-04T19:50:51.828Z,99496.31
2022-12-04T19:53:20.204Z,99500.47
2022-12-04T19:55:47.013Z,99498.63
2022-12-04T19:58:13.911Z,99504.16
2022-12-04T20:00:40.989Z,99501.66
2022-12-04T20:03:07.836Z,99501.66
2022-12-04T20:05:36.774Z,99510.91
2022-12-04T20:10:34.282Z,99500.19
2022-12-04T20:13:01.208Z,99498.34
2022-12-04T20:15:27.987Z,99498.78
2022-12-04T20:17:54.840Z,99512.69
2022-12-04T20:20:21.741Z,99503.63
2022-12-04T20:22:48.760Z,99511.13
2022-12-04T20:25:15.696Z,99514.47
2022-12-04T20:27:44.143Z,99518.78
2022-12-04T20:30:11.488Z,99514.09
2022-12-04T20:32:38.417Z,99514.28
2022-12-04T20:35:06.731Z,99517.63
2022-12-04T20:37:33.780Z,99519.81
2022-12-04T20:40:00.631Z,99515.13
2022-12-04T20:42:33.272Z,99511.63
2022-12-04T20:45:02.355Z,99519.47
2022-12-04T20:47:30.203Z,99521.94
2022-12-04T20:49:57.188Z,99520.56
2022-12-04T20:52:24.535Z,99523.06
2022-12-04T20:54:51.525Z,99520.56
2022-12-04T20:57:18.309Z,99517.09
2022-12-04T20:59:45.325Z,99519.59
2022-12-04T21:02:13.560Z,99521.22
2022-12-04T21:04:40.736Z,99519.41
2022-12-04T21:07:07.486Z,99516.72
2022-12-04T21:09:34.303Z,99525.38
2022-12-04T21:12:01.436Z,99527.44
2022-12-04T21:14:31.680Z,99523.72
2022-12-04T21:16:59.936Z,99526.41
2022-12-04T21:19:28.344Z,99528.41
2022-12-04T21:21:55.428Z,99531.09
2022-12-04T21:24:24.581Z,99534.44
2022-12-04T21:26:51.474Z,99538.75
2022-12-04T21:29:18.532Z,99540.59
2022-12-04T21:31:45.657Z,99534.25
2022-12-04T21:34:16.628Z,99530.72
2022-12-04T21:36:45.814Z,99534.44
2022-12-04T21:39:14.080Z,99538.75
2022-12-04T21:41:41.619Z,99538.13
2022-12-04T21:44:12.010Z,99536.09
2022-12-04T21:46:39.619Z,99528.25
2022-12-04T21:49:07.195Z,99531.09
2022-12-04T21:54:23.264Z,99533.13
2022-12-04T21:56:50.046Z,99536.00
2022-12-04T21:59:16.908Z,99548.34
2022-12-04T22:01:44.262Z,99545.50
2022-12-04T22:04:11.116Z,99548.81
2022-12-04T22:06:38.046Z,99551.50
2022-12-04T22:09:09.096Z,99546.78
2022-12-04T22:11:38.449Z,99553.78
2022-12-04T22:14:05.401Z,99557.84
2022-12-04T22:16:36.911Z,99555.84
2022-12-04T22:19:06.802Z,99555.84
2022-12-04T22:21:33.640Z,99552.13
2022-12-04T22:24:03.648Z,99549.47
2022-12-04T22:26:32.240Z,99556.63
2022-12-04T22:29:00.655Z,99558.31
2022-12-04T22:31:30.515Z,99564.88
2022-12-04T22:34:00.524Z,99570.22
2022-12-04T22:36:31.205Z,99571.88
2022-12-04T22:39:09.391Z,99577.88
2022-12-04T22:41:38.073Z,99580.72
2022-12-04T22:44:06.378Z,99586.72
2022-12-04T22:46:33.872Z,99586.91
2022-12-04T22:49:00.773Z,99586.47
2022-12-04T22:51:28.397Z,99590.13
2022-12-04T22:53:57.930Z,99588.94
2022-12-04T22:56:28.770Z,99587.63
2022-12-04T22:58:56.686Z,99587.00
2022-12-04T23:01:27.777Z,99593.34
2022-12-04T23:03:55.406Z,99603.84
2022-12-04T23:06:25.830Z,99602.88
2022-12-04T23:08:55.454Z,99602.38
2022-12-04T23:11:24.770Z,99604.38
2022-12-04T23:13:53.923Z,99597.19
2022-12-04T23:16:23.389Z,99599.91
2022-12-04T23:18:52.508Z,99594.22
2022-12-04T23:21:21.999Z,99583.34
2022-12-04T23:23:51.872Z,99588.34
2022-12-04T23:26:22.921Z,99579.31
2022-12-04T23:28:50.369Z,99579.31
2022-12-04T23:31:17.782Z,99588.34
2022-12-04T23:33:45.224Z,99594.34
2022-12-04T23:36:15.405Z,99597.88
2022-12-04T23:38:44.063Z,99608.75
2022-12-04T23:41:14.467Z,99613.75
2022-12-04T23:43:42.966Z,99612.72
2022-12-04T23:46:12.834Z,99617.06
2022-12-04T23:48:41.955Z,99617.22
2022-12-04T23:51:11.301Z,99621.41
2022-12-04T23:53:40.138Z,99624.25
2022-12-04T23:56:11.951Z,99632.13
2022-12-04T23:58:40.594Z,99639.13
